sensor_id;sensor_type;location;lat;lon;timestamp;P1;durP1;ratioP1;P2;durP2;ratioP2
55672;SDS011;41554;45.366;20.400;2024-02-21T00:02:19;19.55;;;10.68;;
55672;SDS011;41554;45.366;20.400;2024-02-21T00:04:45;14.95;;;10.68;;
55672;SDS011;41554;45.366;20.400;2024-02-21T00:07:11;18.23;;;12.15;;
55672;SDS011;41554;45.366;20.400;2024-02-21T00:09:37;20.45;;;13.18;;
55672;SDS011;41554;45.366;20.400;2024-02-21T00:12:04;17.05;;;14.10;;
55672;SDS011;41554;45.366;20.400;2024-02-21T00:14:30;23.70;;;13.98;;
55672;SDS011;41554;45.366;20.400;2024-02-21T00:16:56;19.48;;;13.48;;
55672;SDS011;41554;45.366;20.400;2024-02-21T00:19:22;21.70;;;12.57;;
55672;SDS011;41554;45.366;20.400;2024-02-21T00:21:48;33.15;;;17.77;;
55672;SDS011;41554;45.366;20.400;2024-02-21T00:24:14;25.23;;;12.63;;
55672;SDS011;41554;45.366;20.400;2024-02-21T00:26:41;22.90;;;15.18;;
55672;SDS011;41554;45.366;20.400;2024-02-21T00:29:07;23.95;;;15.05;;
55672;SDS011;41554;45.366;20.400;2024-02-21T00:31:33;19.75;;;12.57;;
55672;SDS011;41554;45.366;20.400;2024-02-21T00:33:59;20.67;;;13.35;;
55672;SDS011;41554;45.366;20.400;2024-02-21T00:36:25;22.95;;;13.30;;
55672;SDS011;41554;45.366;20.400;2024-02-21T00:38:51;19.58;;;13.48;;
55672;SDS011;41554;45.366;20.400;2024-02-21T00:41:17;15.80;;;10.70;;
55672;SDS011;41554;45.366;20.400;2024-02-21T00:43:44;13.50;;;10.60;;
55672;SDS011;41554;45.366;20.400;2024-02-21T00:46:10;16.88;;;11.07;;
55672;SDS011;41554;45.366;20.400;2024-02-21T00:48:36;12.75;;;9.10;;
55672;SDS011;41554;45.366;20.400;2024-02-21T00:51:02;14.20;;;9.55;;
55672;SDS011;41554;45.366;20.400;2024-02-21T00:53:28;15.20;;;9.30;;
55672;SDS011;41554;45.366;20.400;2024-02-21T00:55:54;12.73;;;9.05;;
55672;SDS011;41554;45.366;20.400;2024-02-21T00:58:22;18.85;;;10.68;;
55672;SDS011;41554;45.366;20.400;2024-02-21T01:00:48;13.98;;;10.15;;
55672;SDS011;41554;45.366;20.400;2024-02-21T01:03:14;17.05;;;12.18;;
55672;SDS011;41554;45.366;20.400;2024-02-21T01:05:40;12.48;;;9.05;;
55672;SDS011;41554;45.366;20.400;2024-02-21T01:08:07;14.32;;;9.65;;
55672;SDS011;41554;45.366;20.400;2024-02-21T01:10:33;20.25;;;10.35;;
55672;SDS011;41554;45.366;20.400;2024-02-21T01:12:59;13.45;;;9.07;;
55672;SDS011;41554;45.366;20.400;2024-02-21T01:15:25;14.05;;;9.45;;
55672;SDS011;41554;45.366;20.400;2024-02-21T01:17:51;14.60;;;9.82;;
55672;SDS011;41554;45.366;20.400;2024-02-21T01:20:20;13.55;;;9.27;;
55672;SDS011;41554;45.366;20.400;2024-02-21T01:22:46;12.32;;;9.65;;
55672;SDS011;41554;45.366;20.400;2024-02-21T01:25:12;13.45;;;9.10;;
55672;SDS011;41554;45.366;20.400;2024-02-21T01:27:38;15.55;;;8.23;;
55672;SDS011;41554;45.366;20.400;2024-02-21T01:30:04;16.90;;;9.32;;
55672;SDS011;41554;45.366;20.400;2024-02-21T01:32:31;20.65;;;9.15;;
55672;SDS011;41554;45.366;20.400;2024-02-21T01:34:57;24.40;;;9.27;;
55672;SDS011;41554;45.366;20.400;2024-02-21T01:37:23;11.68;;;7.50;;
55672;SDS011;41554;45.366;20.400;2024-02-21T01:39:49;13.52;;;9.52;;
55672;SDS011;41554;45.366;20.400;2024-02-21T01:42:15;12.32;;;9.52;;
55672;SDS011;41554;45.366;20.400;2024-02-21T01:44:41;12.27;;;8.20;;
55672;SDS011;41554;45.366;20.400;2024-02-21T01:47:07;16.10;;;9.15;;
55672;SDS011;41554;45.366;20.400;2024-02-21T01:49:34;16.77;;;8.57;;
55672;SDS011;41554;45.366;20.400;2024-02-21T01:52:00;9.75;;;7.43;;
55672;SDS011;41554;45.366;20.400;2024-02-21T01:54:27;12.20;;;8.30;;
55672;SDS011;41554;45.366;20.400;2024-02-21T01:56:56;14.60;;;9.75;;
55672;SDS011;41554;45.366;20.400;2024-02-21T01:59:22;11.38;;;8.00;;
55672;SDS011;41554;45.366;20.400;2024-02-21T02:01:48;16.17;;;9.48;;
55672;SDS011;41554;45.366;20.400;2024-02-21T02:04:15;13.30;;;8.57;;
55672;SDS011;41554;45.366;20.400;2024-02-21T02:06:41;12.00;;;8.93;;
55672;SDS011;41554;45.366;20.400;2024-02-21T02:09:08;13.07;;;9.82;;
55672;SDS011;41554;45.366;20.400;2024-02-21T02:11:34;11.95;;;9.07;;
55672;SDS011;41554;45.366;20.400;2024-02-21T02:14:01;11.25;;;7.75;;
55672;SDS011;41554;45.366;20.400;2024-02-21T02:16:27;9.32;;;7.97;;
55672;SDS011;41554;45.366;20.400;2024-02-21T02:18:53;14.57;;;9.05;;
55672;SDS011;41554;45.366;20.400;2024-02-21T02:21:29;11.05;;;8.15;;
55672;SDS011;41554;45.366;20.400;2024-02-21T02:23:56;14.13;;;8.88;;
55672;SDS011;41554;45.366;20.400;2024-02-21T02:26:22;16.10;;;10.60;;
55672;SDS011;41554;45.366;20.400;2024-02-21T02:28:48;13.25;;;10.15;;
55672;SDS011;41554;45.366;20.400;2024-02-21T02:31:14;15.07;;;8.75;;
55672;SDS011;41554;45.366;20.400;2024-02-21T02:33:42;16.20;;;10.65;;
55672;SDS011;41554;45.366;20.400;2024-02-21T02:36:09;16.08;;;8.15;;
55672;SDS011;41554;45.366;20.400;2024-02-21T02:38:35;12.90;;;9.57;;
55672;SDS011;41554;45.366;20.400;2024-02-21T02:41:01;14.65;;;9.98;;
55672;SDS011;41554;45.366;20.400;2024-02-21T02:43:27;19.92;;;11.38;;
55672;SDS011;41554;45.366;20.400;2024-02-21T02:45:53;15.70;;;11.65;;
55672;SDS011;41554;45.366;20.400;2024-02-21T02:48:20;15.63;;;11.88;;
55672;SDS011;41554;45.366;20.400;2024-02-21T02:50:46;19.83;;;10.30;;
55672;SDS011;41554;45.366;20.400;2024-02-21T02:53:14;19.17;;;11.50;;
55672;SDS011;41554;45.366;20.400;2024-02-21T02:55:40;14.65;;;10.07;;
55672;SDS011;41554;45.366;20.400;2024-02-21T02:58:07;12.93;;;8.88;;
55672;SDS011;41554;45.366;20.400;2024-02-21T03:00:33;13.40;;;9.30;;
55672;SDS011;41554;45.366;20.400;2024-02-21T03:03:01;22.38;;;9.50;;
55672;SDS011;41554;45.366;20.400;2024-02-21T03:05:30;14.23;;;9.05;;
55672;SDS011;41554;45.366;20.400;2024-02-21T03:07:56;12.82;;;9.30;;
55672;SDS011;41554;45.366;20.400;2024-02-21T03:10:23;12.05;;;10.27;;
55672;SDS011;41554;45.366;20.400;2024-02-21T03:12:49;13.68;;;10.40;;
55672;SDS011;41554;45.366;20.400;2024-02-21T03:15:18;11.95;;;8.38;;
55672;SDS011;41554;45.366;20.400;2024-02-21T03:17:44;16.40;;;9.95;;
55672;SDS011;41554;45.366;20.400;2024-02-21T03:20:10;28.05;;;9.38;;
55672;SDS011;41554;45.366;20.400;2024-02-21T03:22:37;14.88;;;9.23;;
55672;SDS011;41554;45.366;20.400;2024-02-21T03:25:03;16.55;;;8.82;;
55672;SDS011;41554;45.366;20.400;2024-02-21T03:27:29;17.70;;;9.52;;
55672;SDS011;41554;45.366;20.400;2024-02-21T03:29:55;16.33;;;9.77;;
55672;SDS011;41554;45.366;20.400;2024-02-21T03:32:21;12.93;;;8.07;;
55672;SDS011;41554;45.366;20.400;2024-02-21T03:34:47;10.75;;;7.78;;
55672;SDS011;41554;45.366;20.400;2024-02-21T03:37:14;14.30;;;9.75;;
55672;SDS011;41554;45.366;20.400;2024-02-21T03:39:40;8.38;;;6.85;;
55672;SDS011;41554;45.366;20.400;2024-02-21T03:42:06;15.60;;;10.40;;
55672;SDS011;41554;45.366;20.400;2024-02-21T03:44:32;9.30;;;7.22;;
55672;SDS011;41554;45.366;20.400;2024-02-21T03:46:59;14.68;;;9.73;;
55672;SDS011;41554;45.366;20.400;2024-02-21T03:49:25;14.13;;;8.65;;
55672;SDS011;41554;45.366;20.400;2024-02-21T03:51:51;16.33;;;7.88;;
55672;SDS011;41554;45.366;20.400;2024-02-21T03:54:17;9.93;;;8.27;;
55672;SDS011;41554;45.366;20.400;2024-02-21T03:56:43;14.20;;;8.43;;
55672;SDS011;41554;45.366;20.400;2024-02-21T03:59:09;10.55;;;7.82;;
55672;SDS011;41554;45.366;20.400;2024-02-21T04:01:35;23.98;;;8.18;;
55672;SDS011;41554;45.366;20.400;2024-02-21T04:04:02;16.67;;;8.13;;
55672;SDS011;41554;45.366;20.400;2024-02-21T04:06:28;15.20;;;10.75;;
55672;SDS011;41554;45.366;20.400;2024-02-21T04:08:54;27.30;;;17.48;;
55672;SDS011;41554;45.366;20.400;2024-02-21T04:11:20;26.48;;;21.75;;
55672;SDS011;41554;45.366;20.400;2024-02-21T04:13:46;20.05;;;15.85;;
55672;SDS011;41554;45.366;20.400;2024-02-21T04:16:15;21.15;;;14.65;;
55672;SDS011;41554;45.366;20.400;2024-02-21T04:18:41;15.60;;;11.60;;
55672;SDS011;41554;45.366;20.400;2024-02-21T04:21:08;16.83;;;14.25;;
55672;SDS011;41554;45.366;20.400;2024-02-21T04:23:35;10.40;;;8.95;;
55672;SDS011;41554;45.366;20.400;2024-02-21T04:26:01;12.15;;;7.55;;
55672;SDS011;41554;45.366;20.400;2024-02-21T04:28:27;14.52;;;9.63;;
55672;SDS011;41554;45.366;20.400;2024-02-21T04:30:53;12.43;;;8.43;;
55672;SDS011;41554;45.366;20.400;2024-02-21T04:33:19;18.13;;;8.60;;
55672;SDS011;41554;45.366;20.400;2024-02-21T04:35:45;14.13;;;9.32;;
55672;SDS011;41554;45.366;20.400;2024-02-21T04:38:11;13.27;;;9.05;;
55672;SDS011;41554;45.366;20.400;2024-02-21T04:40:37;10.30;;;7.82;;
55672;SDS011;41554;45.366;20.400;2024-02-21T04:43:04;14.80;;;8.32;;
55672;SDS011;41554;45.366;20.400;2024-02-21T04:45:30;9.52;;;7.57;;
55672;SDS011;41554;45.366;20.400;2024-02-21T04:47:56;22.90;;;10.52;;
55672;SDS011;41554;45.366;20.400;2024-02-21T04:50:22;13.63;;;7.80;;
55672;SDS011;41554;45.366;20.400;2024-02-21T04:52:48;12.55;;;8.77;;
55672;SDS011;41554;45.366;20.400;2024-02-21T04:55:14;11.80;;;6.90;;
55672;SDS011;41554;45.366;20.400;2024-02-21T04:57:40;11.45;;;9.18;;
55672;SDS011;41554;45.366;20.400;2024-02-21T05:00:07;10.27;;;9.00;;
55672;SDS011;41554;45.366;20.400;2024-02-21T05:02:33;11.80;;;8.52;;
55672;SDS011;41554;45.366;20.400;2024-02-21T05:04:59;18.73;;;9.07;;
55672;SDS011;41554;45.366;20.400;2024-02-21T05:07:26;13.15;;;8.60;;
55672;SDS011;41554;45.366;20.400;2024-02-21T05:09:52;13.63;;;8.43;;
55672;SDS011;41554;45.366;20.400;2024-02-21T05:12:18;13.93;;;9.88;;
55672;SDS011;41554;45.366;20.400;2024-02-21T05:14:44;13.55;;;8.50;;
55672;SDS011;41554;45.366;20.400;2024-02-21T05:17:10;14.60;;;8.68;;
55672;SDS011;41554;45.366;20.400;2024-02-21T05:19:36;11.20;;;8.30;;
55672;SDS011;41554;45.366;20.400;2024-02-21T05:22:02;11.93;;;8.30;;
55672;SDS011;41554;45.366;20.400;2024-02-21T05:24:28;12.02;;;8.30;;
55672;SDS011;41554;45.366;20.400;2024-02-21T05:26:54;14.98;;;9.68;;
55672;SDS011;41554;45.366;20.400;2024-02-21T05:29:21;12.27;;;8.98;;
55672;SDS011;41554;45.366;20.400;2024-02-21T05:34:16;13.23;;;8.43;;
55672;SDS011;41554;45.366;20.400;2024-02-21T05:36:42;13.07;;;8.77;;
55672;SDS011;41554;45.366;20.400;2024-02-21T05:39:09;10.23;;;8.90;;
55672;SDS011;41554;45.366;20.400;2024-02-21T05:41:35;15.63;;;8.20;;
55672;SDS011;41554;45.366;20.400;2024-02-21T05:44:01;17.48;;;9.80;;
55672;SDS011;41554;45.366;20.400;2024-02-21T05:46:27;8.73;;;6.93;;
55672;SDS011;41554;45.366;20.400;2024-02-21T05:48:53;8.88;;;6.95;;
55672;SDS011;41554;45.366;20.400;2024-02-21T05:51:20;14.95;;;7.22;;
55672;SDS011;41554;45.366;20.400;2024-02-21T05:53:46;13.60;;;7.78;;
55672;SDS011;41554;45.366;20.400;2024-02-21T05:56:12;20.63;;;9.57;;
55672;SDS011;41554;45.366;20.400;2024-02-21T05:58:39;14.70;;;9.70;;
55672;SDS011;41554;45.366;20.400;2024-02-21T06:01:05;11.65;;;8.07;;
55672;SDS011;41554;45.366;20.400;2024-02-21T06:03:32;10.32;;;7.55;;
55672;SDS011;41554;45.366;20.400;2024-02-21T06:05:58;27.70;;;8.77;;
55672;SDS011;41554;45.366;20.400;2024-02-21T06:08:25;12.10;;;7.47;;
55672;SDS011;41554;45.366;20.400;2024-02-21T06:10:51;12.23;;;8.90;;
55672;SDS011;41554;45.366;20.400;2024-02-21T06:13:20;16.67;;;10.10;;
55672;SDS011;41554;45.366;20.400;2024-02-21T06:15:46;12.70;;;8.00;;
55672;SDS011;41554;45.366;20.400;2024-02-21T06:18:13;15.57;;;8.15;;
55672;SDS011;41554;45.366;20.400;2024-02-21T06:20:39;9.25;;;7.45;;
55672;SDS011;41554;45.366;20.400;2024-02-21T06:23:06;25.17;;;7.63;;
55672;SDS011;41554;45.366;20.400;2024-02-21T06:25:32;11.45;;;8.45;;
55672;SDS011;41554;45.366;20.400;2024-02-21T06:27:58;12.25;;;7.15;;
55672;SDS011;41554;45.366;20.400;2024-02-21T06:30:24;10.60;;;8.23;;
55672;SDS011;41554;45.366;20.400;2024-02-21T06:32:50;13.88;;;7.45;;
55672;SDS011;41554;45.366;20.400;2024-02-21T06:35:16;9.48;;;7.57;;
55672;SDS011;41554;45.366;20.400;2024-02-21T06:37:42;10.75;;;6.45;;
55672;SDS011;41554;45.366;20.400;2024-02-21T06:40:10;10.63;;;7.00;;
55672;SDS011;41554;45.366;20.400;2024-02-21T06:42:36;8.45;;;6.03;;
55672;SDS011;41554;45.366;20.400;2024-02-21T06:45:02;14.93;;;9.35;;
55672;SDS011;41554;45.366;20.400;2024-02-21T06:47:29;8.07;;;6.60;;
55672;SDS011;41554;45.366;20.400;2024-02-21T06:49:55;17.00;;;6.60;;
55672;SDS011;41554;45.366;20.400;2024-02-21T06:52:21;7.30;;;5.28;;
55672;SDS011;41554;45.366;20.400;2024-02-21T06:54:48;9.05;;;4.88;;
55672;SDS011;41554;45.366;20.400;2024-02-21T06:57:15;9.25;;;6.07;;
55672;SDS011;41554;45.366;20.400;2024-02-21T06:59:41;7.60;;;4.90;;
55672;SDS011;41554;45.366;20.400;2024-02-21T07:02:07;7.78;;;5.22;;
55672;SDS011;41554;45.366;20.400;2024-02-21T07:04:34;6.45;;;5.78;;
55672;SDS011;41554;45.366;20.400;2024-02-21T07:07:00;13.35;;;9.82;;
55672;SDS011;41554;45.366;20.400;2024-02-21T07:09:26;15.68;;;8.40;;
55672;SDS011;41554;45.366;20.400;2024-02-21T07:11:53;9.95;;;7.50;;
55672;SDS011;41554;45.366;20.400;2024-02-21T07:14:19;11.95;;;8.05;;
55672;SDS011;41554;45.366;20.400;2024-02-21T07:16:46;10.63;;;6.85;;
55672;SDS011;41554;45.366;20.400;2024-02-21T07:19:12;11.10;;;8.27;;
55672;SDS011;41554;45.366;20.400;2024-02-21T07:21:38;15.90;;;9.80;;
55672;SDS011;41554;45.366;20.400;2024-02-21T07:24:06;22.10;;;9.88;;
55672;SDS011;41554;45.366;20.400;2024-02-21T07:26:32;17.48;;;11.82;;
55672;SDS011;41554;45.366;20.400;2024-02-21T07:28:58;19.00;;;12.80;;
55672;SDS011;41554;45.366;20.400;2024-02-21T07:31:25;13.10;;;8.98;;
55672;SDS011;41554;45.366;20.400;2024-02-21T07:33:51;16.63;;;9.00;;
55672;SDS011;41554;45.366;20.400;2024-02-21T07:36:25;11.27;;;7.70;;
55672;SDS011;41554;45.366;20.400;2024-02-21T07:38:51;13.80;;;11.00;;
55672;SDS011;41554;45.366;20.400;2024-02-21T07:41:17;11.60;;;7.97;;
55672;SDS011;41554;45.366;20.400;2024-02-21T07:43:43;13.65;;;8.55;;
55672;SDS011;41554;45.366;20.400;2024-02-21T07:46:09;8.18;;;7.30;;
55672;SDS011;41554;45.366;20.400;2024-02-21T07:48:35;11.75;;;8.40;;
55672;SDS011;41554;45.366;20.400;2024-02-21T07:51:01;17.70;;;6.47;;
55672;SDS011;41554;45.366;20.400;2024-02-21T07:53:27;13.55;;;7.55;;
55672;SDS011;41554;45.366;20.400;2024-02-21T07:55:54;13.80;;;8.15;;
55672;SDS011;41554;45.366;20.400;2024-02-21T07:58:20;14.50;;;9.50;;
55672;SDS011;41554;45.366;20.400;2024-02-21T08:00:46;15.13;;;9.55;;
55672;SDS011;41554;45.366;20.400;2024-02-21T08:03:12;9.48;;;7.57;;
55672;SDS011;41554;45.366;20.400;2024-02-21T08:05:40;14.90;;;10.07;;
55672;SDS011;41554;45.366;20.400;2024-02-21T08:08:06;17.25;;;9.98;;
55672;SDS011;41554;45.366;20.400;2024-02-21T08:10:33;23.70;;;11.48;;
55672;SDS011;41554;45.366;20.400;2024-02-21T08:12:59;12.02;;;9.02;;
55672;SDS011;41554;45.366;20.400;2024-02-21T08:15:25;15.63;;;9.93;;
55672;SDS011;41554;45.366;20.400;2024-02-21T08:17:54;14.48;;;9.35;;
55672;SDS011;41554;45.366;20.400;2024-02-21T08:20:24;15.95;;;9.70;;
55672;SDS011;41554;45.366;20.400;2024-02-21T08:22:51;13.93;;;9.05;;
55672;SDS011;41554;45.366;20.400;2024-02-21T08:25:17;10.80;;;7.10;;
55672;SDS011;41554;45.366;20.400;2024-02-21T08:27:43;12.55;;;8.70;;
55672;SDS011;41554;45.366;20.400;2024-02-21T08:30:10;17.27;;;7.38;;
55672;SDS011;41554;45.366;20.400;2024-02-21T08:32:36;18.20;;;9.40;;
55672;SDS011;41554;45.366;20.400;2024-02-21T08:35:03;18.60;;;9.57;;
55672;SDS011;41554;45.366;20.400;2024-02-21T08:37:30;13.32;;;9.18;;
55672;SDS011;41554;45.366;20.400;2024-02-21T08:39:56;11.52;;;7.45;;
55672;SDS011;41554;45.366;20.400;2024-02-21T08:42:22;16.80;;;9.38;;
55672;SDS011;41554;45.366;20.400;2024-02-21T08:44:48;13.38;;;7.80;;
55672;SDS011;41554;45.366;20.400;2024-02-21T08:47:14;11.73;;;8.32;;
55672;SDS011;41554;45.366;20.400;2024-02-21T08:49:40;10.52;;;6.32;;
55672;SDS011;41554;45.366;20.400;2024-02-21T08:52:06;9.43;;;6.03;;
55672;SDS011;41554;45.366;20.400;2024-02-21T08:54:32;8.38;;;5.03;;
55672;SDS011;41554;45.366;20.400;2024-02-21T08:56:59;8.68;;;5.78;;
55672;SDS011;41554;45.366;20.400;2024-02-21T08:59:25;8.63;;;5.03;;
55672;SDS011;41554;45.366;20.400;2024-02-21T09:01:51;10.88;;;6.82;;
55672;SDS011;41554;45.366;20.400;2024-02-21T09:04:18;9.98;;;5.00;;
55672;SDS011;41554;45.366;20.400;2024-02-21T09:06:44;31.50;;;14.20;;
55672;SDS011;41554;45.366;20.400;2024-02-21T09:09:11;8.05;;;6.35;;
55672;SDS011;41554;45.366;20.400;2024-02-21T09:11:37;11.32;;;8.00;;
55672;SDS011;41554;45.366;20.400;2024-02-21T09:14:05;35.33;;;21.17;;
55672;SDS011;41554;45.366;20.400;2024-02-21T09:16:31;25.55;;;16.40;;
55672;SDS011;41554;45.366;20.400;2024-02-21T09:18:57;24.35;;;17.58;;
55672;SDS011;41554;45.366;20.400;2024-02-21T09:21:24;21.85;;;15.13;;
55672;SDS011;41554;45.366;20.400;2024-02-21T09:23:50;19.70;;;11.45;;
55672;SDS011;41554;45.366;20.400;2024-02-21T09:26:16;15.45;;;9.00;;
55672;SDS011;41554;45.366;20.400;2024-02-21T09:28:42;9.32;;;6.57;;
55672;SDS011;41554;45.366;20.400;2024-02-21T09:31:09;30.33;;;18.38;;
55672;SDS011;41554;45.366;20.400;2024-02-21T09:33:35;14.57;;;7.63;;
55672;SDS011;41554;45.366;20.400;2024-02-21T09:36:02;11.52;;;6.90;;
55672;SDS011;41554;45.366;20.400;2024-02-21T09:38:30;25.20;;;14.13;;
55672;SDS011;41554;45.366;20.400;2024-02-21T09:41:00;12.55;;;6.47;;
55672;SDS011;41554;45.366;20.400;2024-02-21T09:43:30;25.77;;;15.35;;
55672;SDS011;41554;45.366;20.400;2024-02-21T09:45:56;12.82;;;8.02;;
55672;SDS011;41554;45.366;20.400;2024-02-21T09:50:49;19.30;;;7.05;;
55672;SDS011;41554;45.366;20.400;2024-02-21T09:53:16;22.80;;;10.00;;
55672;SDS011;41554;45.366;20.400;2024-02-21T09:55:43;14.95;;;8.43;;
55672;SDS011;41554;45.366;20.400;2024-02-21T09:58:09;11.18;;;6.63;;
55672;SDS011;41554;45.366;20.400;2024-02-21T10:00:35;13.68;;;8.75;;
55672;SDS011;41554;45.366;20.400;2024-02-21T10:03:02;21.60;;;12.85;;
55672;SDS011;41554;45.366;20.400;2024-02-21T10:05:33;19.17;;;10.57;;
55672;SDS011;41554;45.366;20.400;2024-02-21T10:08:02;13.95;;;7.10;;
55672;SDS011;41554;45.366;20.400;2024-02-21T10:10:28;13.48;;;6.57;;
55672;SDS011;41554;45.366;20.400;2024-02-21T10:12:55;15.43;;;6.30;;
55672;SDS011;41554;45.366;20.400;2024-02-21T10:15:23;8.93;;;6.55;;
55672;SDS011;41554;45.366;20.400;2024-02-21T10:17:50;8.13;;;5.82;;
55672;SDS011;41554;45.366;20.400;2024-02-21T10:20:16;16.92;;;9.10;;
55672;SDS011;41554;45.366;20.400;2024-02-21T10:22:42;10.30;;;7.15;;
55672;SDS011;41554;45.366;20.400;2024-02-21T10:25:09;12.98;;;7.80;;
55672;SDS011;41554;45.366;20.400;2024-02-21T10:27:36;17.88;;;6.60;;
55672;SDS011;41554;45.366;20.400;2024-02-21T10:30:02;11.43;;;5.35;;
55672;SDS011;41554;45.366;20.400;2024-02-21T10:32:28;9.65;;;4.97;;
55672;SDS011;41554;45.366;20.400;2024-02-21T10:35:02;12.93;;;5.15;;
55672;SDS011;41554;45.366;20.400;2024-02-21T10:37:31;9.85;;;6.68;;
55672;SDS011;41554;45.366;20.400;2024-02-21T10:39:57;6.65;;;4.35;;
55672;SDS011;41554;45.366;20.400;2024-02-21T10:42:25;10.95;;;6.50;;
55672;SDS011;41554;45.366;20.400;2024-02-21T10:44:55;7.45;;;4.43;;
55672;SDS011;41554;45.366;20.400;2024-02-21T10:47:26;11.43;;;5.75;;
55672;SDS011;41554;45.366;20.400;2024-02-21T10:49:57;8.32;;;5.50;;
55672;SDS011;41554;45.366;20.400;2024-02-21T10:54:56;8.48;;;5.82;;
55672;SDS011;41554;45.366;20.400;2024-02-21T10:57:23;7.32;;;5.15;;
55672;SDS011;41554;45.366;20.400;2024-02-21T10:59:50;7.88;;;5.57;;
55672;SDS011;41554;45.366;20.400;2024-02-21T11:02:16;11.52;;;6.90;;
55672;SDS011;41554;45.366;20.400;2024-02-21T11:04:42;10.65;;;4.57;;
55672;SDS011;41554;45.366;20.400;2024-02-21T11:07:09;7.65;;;6.05;;
55672;SDS011;41554;45.366;20.400;2024-02-21T11:09:35;7.68;;;6.20;;
55672;SDS011;41554;45.366;20.400;2024-02-21T11:12:05;11.70;;;5.03;;
55672;SDS011;41554;45.366;20.400;2024-02-21T11:14:31;9.02;;;5.45;;
55672;SDS011;41554;45.366;20.400;2024-02-21T11:16:57;10.52;;;5.72;;
55672;SDS011;41554;45.366;20.400;2024-02-21T11:19:27;8.90;;;5.53;;
55672;SDS011;41554;45.366;20.400;2024-02-21T11:21:54;9.15;;;4.45;;
55672;SDS011;41554;45.366;20.400;2024-02-21T11:24:25;6.60;;;4.63;;
55672;SDS011;41554;45.366;20.400;2024-02-21T11:26:52;15.10;;;4.43;;
55672;SDS011;41554;45.366;20.400;2024-02-21T11:29:25;9.88;;;4.53;;
55672;SDS011;41554;45.366;20.400;2024-02-21T11:31:51;5.22;;;4.60;;
55672;SDS011;41554;45.366;20.400;2024-02-21T11:34:18;7.72;;;5.15;;
55672;SDS011;41554;45.366;20.400;2024-02-21T11:36:48;12.88;;;5.38;;
55672;SDS011;41554;45.366;20.400;2024-02-21T11:39:18;10.95;;;5.60;;
55672;SDS011;41554;45.366;20.400;2024-02-21T11:41:46;10.20;;;4.93;;
55672;SDS011;41554;45.366;20.400;2024-02-21T11:44:12;10.50;;;6.00;;
55672;SDS011;41554;45.366;20.400;2024-02-21T11:46:38;12.23;;;5.90;;
55672;SDS011;41554;45.366;20.400;2024-02-21T11:49:04;11.90;;;4.60;;
55672;SDS011;41554;45.366;20.400;2024-02-21T11:51:30;11.95;;;6.13;;
55672;SDS011;41554;45.366;20.400;2024-02-21T11:53:56;11.20;;;6.28;;
55672;SDS011;41554;45.366;20.400;2024-02-21T11:56:23;10.38;;;5.22;;
55672;SDS011;41554;45.366;20.400;2024-02-21T11:58:49;8.30;;;5.13;;
55672;SDS011;41554;45.366;20.400;2024-02-21T12:01:15;7.00;;;4.78;;
55672;SDS011;41554;45.366;20.400;2024-02-21T12:03:42;10.57;;;5.03;;
55672;SDS011;41554;45.366;20.400;2024-02-21T12:06:15;14.55;;;3.95;;
55672;SDS011;41554;45.366;20.400;2024-02-21T12:08:44;5.03;;;3.45;;
55672;SDS011;41554;45.366;20.400;2024-02-21T12:11:19;12.27;;;4.30;;
55672;SDS011;41554;45.366;20.400;2024-02-21T12:13:46;5.35;;;3.75;;
55672;SDS011;41554;45.366;20.400;2024-02-21T12:16:14;5.90;;;3.90;;
55672;SDS011;41554;45.366;20.400;2024-02-21T12:18:43;9.35;;;4.57;;
55672;SDS011;41554;45.366;20.400;2024-02-21T12:21:09;8.82;;;3.60;;
55672;SDS011;41554;45.366;20.400;2024-02-21T12:23:37;5.50;;;4.50;;
55672;SDS011;41554;45.366;20.400;2024-02-21T12:26:04;10.63;;;5.13;;
55672;SDS011;41554;45.366;20.400;2024-02-21T12:28:30;5.75;;;4.15;;
55672;SDS011;41554;45.366;20.400;2024-02-21T12:30:57;9.57;;;5.47;;
55672;SDS011;41554;45.366;20.400;2024-02-21T12:33:23;12.38;;;5.65;;
55672;SDS011;41554;45.366;20.400;2024-02-21T12:35:49;20.88;;;7.45;;
55672;SDS011;41554;45.366;20.400;2024-02-21T12:38:15;11.50;;;5.50;;
55672;SDS011;41554;45.366;20.400;2024-02-21T12:40:43;12.68;;;5.25;;
55672;SDS011;41554;45.366;20.400;2024-02-21T12:43:09;9.38;;;4.65;;
55672;SDS011;41554;45.366;20.400;2024-02-21T12:45:35;4.63;;;3.25;;
55672;SDS011;41554;45.366;20.400;2024-02-21T12:48:01;16.48;;;5.95;;
55672;SDS011;41554;45.366;20.400;2024-02-21T12:50:29;8.43;;;3.83;;
55672;SDS011;41554;45.366;20.400;2024-02-21T12:52:56;7.68;;;4.60;;
55672;SDS011;41554;45.366;20.400;2024-02-21T12:55:23;9.57;;;5.32;;
55672;SDS011;41554;45.366;20.400;2024-02-21T12:57:50;18.27;;;5.32;;
55672;SDS011;41554;45.366;20.400;2024-02-21T13:00:16;7.97;;;5.68;;
55672;SDS011;41554;45.366;20.400;2024-02-21T13:02:42;8.07;;;4.90;;
55672;SDS011;41554;45.366;20.400;2024-02-21T13:05:08;12.02;;;6.53;;
55672;SDS011;41554;45.366;20.400;2024-02-21T13:07:34;8.68;;;5.22;;
55672;SDS011;41554;45.366;20.400;2024-02-21T13:10:00;15.10;;;4.03;;
55672;SDS011;41554;45.366;20.400;2024-02-21T13:12:26;9.73;;;4.90;;
55672;SDS011;41554;45.366;20.400;2024-02-21T13:14:53;13.57;;;5.47;;
55672;SDS011;41554;45.366;20.400;2024-02-21T13:17:19;12.07;;;5.13;;
55672;SDS011;41554;45.366;20.400;2024-02-21T13:19:47;13.68;;;6.78;;
55672;SDS011;41554;45.366;20.400;2024-02-21T13:22:13;16.08;;;4.82;;
55672;SDS011;41554;45.366;20.400;2024-02-21T13:24:39;5.85;;;3.67;;
55672;SDS011;41554;45.366;20.400;2024-02-21T13:27:05;5.50;;;3.53;;
55672;SDS011;41554;45.366;20.400;2024-02-21T13:29:31;6.93;;;4.78;;
55672;SDS011;41554;45.366;20.400;2024-02-21T13:31:58;7.65;;;4.00;;
55672;SDS011;41554;45.366;20.400;2024-02-21T13:34:24;9.68;;;4.97;;
55672;SDS011;41554;45.366;20.400;2024-02-21T13:36:50;6.75;;;4.85;;
55672;SDS011;41554;45.366;20.400;2024-02-21T13:39:19;9.55;;;4.88;;
55672;SDS011;41554;45.366;20.400;2024-02-21T13:41:45;9.55;;;4.20;;
55672;SDS011;41554;45.366;20.400;2024-02-21T13:44:12;12.35;;;4.57;;
55672;SDS011;41554;45.366;20.400;2024-02-21T13:46:38;4.90;;;3.85;;
55672;SDS011;41554;45.366;20.400;2024-02-21T13:49:04;9.00;;;4.60;;
55672;SDS011;41554;45.366;20.400;2024-02-21T13:51:34;10.03;;;4.00;;
55672;SDS011;41554;45.366;20.400;2024-02-21T13:54:03;6.25;;;4.63;;
55672;SDS011;41554;45.366;20.400;2024-02-21T13:56:30;6.32;;;3.40;;
55672;SDS011;41554;45.366;20.400;2024-02-21T13:58:57;9.88;;;5.03;;
55672;SDS011;41554;45.366;20.400;2024-02-21T14:01:25;5.90;;;3.65;;
55672;SDS011;41554;45.366;20.400;2024-02-21T14:03:52;9.40;;;5.18;;
55672;SDS011;41554;45.366;20.400;2024-02-21T14:06:18;14.30;;;6.35;;
55672;SDS011;41554;45.366;20.400;2024-02-21T14:08:45;15.43;;;6.53;;
55672;SDS011;41554;45.366;20.400;2024-02-21T14:11:11;33.97;;;25.42;;
55672;SDS011;41554;45.366;20.400;2024-02-21T14:13:37;26.38;;;11.35;;
55672;SDS011;41554;45.366;20.400;2024-02-21T14:16:08;10.10;;;7.05;;
55672;SDS011;41554;45.366;20.400;2024-02-21T14:18:36;15.23;;;7.03;;
55672;SDS011;41554;45.366;20.400;2024-02-21T14:21:03;11.30;;;5.38;;
55672;SDS011;41554;45.366;20.400;2024-02-21T14:23:29;8.02;;;5.00;;
55672;SDS011;41554;45.366;20.400;2024-02-21T14:25:55;12.40;;;4.70;;
55672;SDS011;41554;45.366;20.400;2024-02-21T14:28:21;9.50;;;5.55;;